Station History

Weather Underground - logo

Station Historical Data
Daily Summary for September 11, 2017 Units:  English    Metric   Both
« Previous Day
Next Day »
Daily Weekly Monthly Yearly Custom
  High: Low: Average:
Temperature: 97.5 °F 68.2 °F 82.1 °F
Dew Point: 68.6 °F 61.3 °F 64.5 °F
Humidity: 82 % 31 % 57 %
Wind Speed: 5.8 mph 0.0 mph 1.1 mph
Wind Gust: 5.8 mph - -
Wind:- - SW
Pressure: 29.86 in 29.75 in -
Precipitation: 0.00 in    
Historical Graphs
 
 
Tabular Data for September 11, 2017
Time Temperature Dew Point Pressure Wind Wind Speed Wind Gust Humidity Rainfall Rate (Hourly)
00:03 75.1 °F 64.6 °F 29.80 in ESE 1.2 mph 1.2 mph 70 % 0.00 in
00:08 75.0 °F 65.0 °F 29.80 in SSE 1.2 mph 1.2 mph 71 % 0.00 in
00:13 74.8 °F 64.4 °F 29.80 in SE 1.2 mph 1.2 mph 70 % 0.00 in
00:18 74.9 °F 64.0 °F 29.80 in Calm     69 % 0.00 in
00:23 74.9 °F 64.0 °F 29.80 in Calm     69 % 0.00 in
00:28 74.9 °F 64.0 °F 29.80 in Calm     69 % 0.00 in
00:33 74.9 °F 64.0 °F 29.81 in Calm     69 % 0.00 in
00:38 75.1 °F 64.2 °F 29.81 in Calm     69 % 0.00 in
00:43 75.3 °F 64.0 °F 29.81 in Calm     68 % 0.00 in
00:48 75.5 °F 64.2 °F 29.81 in Calm     68 % 0.00 in
00:53 75.8 °F 64.1 °F 29.81 in Calm     67 % 0.00 in
00:58 76.1 °F 63.9 °F 29.82 in Calm     66 % 0.00 in
01:03 76.4 °F 63.8 °F 29.81 in ENE 1.2 mph   65 % 0.00 in
01:08 76.7 °F 63.6 °F 29.82 in ENE 3.5 mph 3.5 mph 64 % 0.00 in
01:13 76.9 °F 63.8 °F 29.82 in SE 2.3 mph 2.3 mph 64 % 0.00 in
01:18 76.9 °F 64.2 °F 29.82 in SE 1.2 mph 1.2 mph 65 % 0.00 in
01:23 76.8 °F 64.1 °F 29.82 in Calm     65 % 0.00 in
01:28 76.6 °F 64.0 °F 29.83 in ESE 1.2 mph 1.2 mph 65 % 0.00 in
01:33 76.4 °F 63.8 °F 29.83 in Calm     65 % 0.00 in
01:38 76.2 °F 64.0 °F 29.83 in Calm     66 % 0.00 in
01:43 75.9 °F 64.2 °F 29.83 in SSE 1.2 mph 1.2 mph 67 % 0.00 in
01:48 75.7 °F 64.0 °F 29.83 in Calm     67 % 0.00 in
01:53 75.4 °F 64.1 °F 29.83 in Calm     68 % 0.00 in
01:58 75.2 °F 63.9 °F 29.83 in Calm     68 % 0.00 in
02:03 75.1 °F 63.8 °F 29.83 in SE 1.2 mph   68 % 0.00 in
02:08 75.0 °F 63.7 °F 29.83 in SSE 1.2 mph   68 % 0.00 in
02:13 74.7 °F 63.9 °F 29.84 in Calm     69 % 0.00 in
02:18 74.6 °F 63.8 °F 29.84 in Calm     69 % 0.00 in
02:23 74.5 °F 63.7 °F 29.85 in SE 1.2 mph   69 % 0.00 in
02:28 74.4 °F 63.6 °F 29.85 in SE 1.2 mph   69 % 0.00 in
02:33 74.3 °F 63.9 °F 29.86 in ESE 1.2 mph 1.2 mph 70 % 0.00 in
02:38 74.3 °F 63.5 °F 29.86 in ESE 1.2 mph   69 % 0.00 in
02:43 74.4 °F 63.6 °F 29.86 in SE 1.2 mph   69 % 0.00 in
02:48 74.5 °F 63.7 °F 29.85 in Calm     69 % 0.00 in
02:53 74.5 °F 63.2 °F 29.85 in SE 1.2 mph   68 % 0.00 in
02:58 74.5 °F 63.2 °F 29.85 in Calm     68 % 0.00 in
03:03 74.4 °F 63.1 °F 29.86 in Calm     68 % 0.00 in
03:08 74.4 °F 63.1 °F 29.85 in Calm     68 % 0.00 in
03:13 74.4 °F 63.1 °F 29.85 in Calm     68 % 0.00 in
03:18 74.6 °F 63.3 °F 29.85 in Calm     68 % 0.00 in
03:23 74.8 °F 63.1 °F 29.85 in ESE 1.2 mph   67 % 0.00 in
03:28 74.9 °F 62.8 °F 29.85 in Calm     66 % 0.00 in
03:33 75.0 °F 63.3 °F 29.85 in East 1.2 mph   67 % 0.00 in
03:38 74.8 °F 63.5 °F 29.85 in Calm     68 % 0.00 in
03:43 74.6 °F 62.9 °F 29.85 in Calm     67 % 0.00 in
03:48 74.6 °F 62.9 °F 29.85 in Calm     67 % 0.00 in
03:53 74.4 °F 63.1 °F 29.85 in Calm     68 % 0.00 in
03:58 74.1 °F 62.9 °F 29.85 in Calm     68 % 0.00 in
04:03 74.0 °F 62.8 °F 29.85 in Calm     68 % 0.00 in
04:08 73.9 °F 62.7 °F 29.85 in Calm     68 % 0.00 in
04:13 73.7 °F 62.5 °F 29.85 in ESE 1.2 mph   68 % 0.00 in
04:18 73.5 °F 62.7 °F 29.85 in Calm     69 % 0.00 in
04:23 73.3 °F 62.5 °F 29.85 in SE 1.2 mph   69 % 0.00 in
04:28 73.2 °F 62.4 °F 29.84 in Calm     69 % 0.00 in
04:33 73.2 °F 62.4 °F 29.84 in Calm     69 % 0.00 in
04:38 73.1 °F 63.1 °F 29.84 in Calm     71 % 0.00 in
04:43 72.9 °F 62.5 °F 29.84 in Calm     70 % 0.00 in
04:53 72.5 °F 63.7 °F 29.84 in Calm     74 % 0.00 in
04:58 72.2 °F 62.7 °F 29.84 in Calm     72 % 0.00 in
05:03 72.1 °F 63.0 °F 29.84 in Calm     73 % 0.00 in
05:08 71.9 °F 62.8 °F 29.83 in Calm     73 % 0.00 in
05:13 71.7 °F 63.4 °F 29.83 in Calm     75 % 0.00 in
05:18 71.2 °F 63.2 °F 29.83 in Calm     76 % 0.00 in
05:23 70.8 °F 63.2 °F 29.83 in Calm     77 % 0.00 in
05:28 70.6 °F 63.4 °F 29.82 in Calm     78 % 0.00 in
05:33 70.6 °F 63.0 °F 29.82 in Calm     77 % 0.00 in
05:38 70.6 °F 63.0 °F 29.82 in Calm     77 % 0.00 in
05:43 70.7 °F 62.8 °F 29.82 in Calm     76 % 0.00 in
05:48 70.7 °F 63.5 °F 29.82 in Calm     78 % 0.00 in
05:53 70.4 °F 62.8 °F 29.82 in Calm     77 % 0.00 in
05:58 70.5 °F 62.9 °F 29.82 in Calm     77 % 0.00 in
06:04 70.6 °F 63.0 °F 29.82 in Calm     77 % 0.00 in
06:09 70.4 °F 63.2 °F 29.82 in Calm     78 % 0.00 in
06:14 69.9 °F 63.1 °F 29.83 in Calm     79 % 0.00 in
06:19 69.5 °F 63.1 °F 29.83 in Calm     80 % 0.00 in
06:24 69.3 °F 63.2 °F 29.83 in Calm     81 % 0.00 in
06:29 69.1 °F 63.0 °F 29.83 in Calm     81 % 0.00 in
06:34 69.2 °F 62.8 °F 29.83 in Calm     80 % 0.00 in
06:39 69.2 °F 62.8 °F 29.83 in Calm     80 % 0.00 in
06:44 69.3 °F 63.2 °F 29.83 in Calm     81 % 0.00 in
06:49 69.1 °F 63.0 °F 29.83 in SE 1.2 mph 1.2 mph 81 % 0.00 in
06:54 68.8 °F 62.7 °F 29.83 in Calm     81 % 0.00 in
06:59 68.5 °F 62.4 °F 29.84 in SE 1.2 mph   81 % 0.00 in
07:04 68.4 °F 62.7 °F 29.84 in Calm     82 % 0.00 in
07:09 68.3 °F 62.6 °F 29.84 in Calm     82 % 0.00 in
07:14 68.2 °F 62.5 °F 29.84 in ESE 1.2 mph   82 % 0.00 in
07:19 68.3 °F 62.6 °F 29.85 in Calm   0.1 mph 82 % 0.00 in
07:24 68.4 °F 62.7 °F 29.85 in Calm     82 % 0.00 in
07:29 68.7 °F 62.6 °F 29.85 in SE 2.3 mph 2.3 mph 81 % 0.00 in
07:34 69.2 °F 62.8 °F 29.85 in SSE 2.3 mph 2.3 mph 80 % 0.00 in
07:39 69.8 °F 63.0 °F 29.85 in SE 2.3 mph 2.3 mph 79 % 0.00 in
07:44 70.3 °F 63.1 °F 29.85 in SE 2.3 mph 2.3 mph 78 % 0.00 in
07:49 70.9 °F 63.3 °F 29.85 in SSE 1.2 mph 1.2 mph 77 % 0.00 in
07:54 71.4 °F 63.1 °F 29.85 in SE 2.3 mph 2.3 mph 75 % 0.00 in
07:59 72.3 °F 63.2 °F 29.85 in South 2.0 mph 2.0 mph 73 % 0.00 in
08:04 73.4 °F 63.8 °F 29.85 in SE 1.2 mph 1.2 mph 72 % 0.00 in
08:09 74.2 °F 64.2 °F 29.85 in Calm     71 % 0.00 in
08:14 74.9 °F 64.0 °F 29.85 in SSE 2.3 mph 2.3 mph 69 % 0.00 in
08:19 75.6 °F 64.3 °F 29.85 in SSE 2.3 mph 2.3 mph 68 % 0.00 in
08:24 76.1 °F 64.3 °F 29.85 in ENE 1.2 mph 1.2 mph 67 % 0.00 in
08:29 76.8 °F 65.0 °F 29.85 in SE 1.2 mph 1.2 mph 67 % 0.00 in
08:34 77.5 °F 64.8 °F 29.85 in SE 2.3 mph   65 % 0.00 in
08:39 78.5 °F 65.3 °F 29.85 in SE 1.0 mph   64 % 0.00 in
08:44 79.2 °F 65.1 °F 29.85 in SE 1.2 mph   62 % 0.00 in
08:49 80.0 °F 65.3 °F 29.85 in SSE 2.3 mph 2.3 mph 61 % 0.00 in
08:54 80.8 °F 66.1 °F 29.85 in Calm     61 % 0.00 in
08:59 81.7 °F 66.0 °F 29.85 in Calm     59 % 0.00 in
09:04 82.1 °F 64.8 °F 29.85 in South 1.2 mph 1.2 mph 56 % 0.00 in
09:05 82.2 °F 65.4 °F 29.85 in Calm     57 % 0.00 in
09:10 82.6 °F 65.3 °F 29.85 in South 1.2 mph 1.2 mph 56 % 0.00 in
09:15 82.9 °F 65.1 °F 29.85 in SSW 3.0 mph 3.0 mph 55 % 0.00 in
09:20 83.0 °F 65.2 °F 29.85 in SSW 2.3 mph 2.3 mph 55 % 0.00 in
09:25 82.9 °F 65.6 °F 29.85 in Calm     56 % 0.00 in
09:30 83.4 °F 65.0 °F 29.85 in ESE 1.2 mph 1.2 mph 54 % 0.00 in
09:35 83.7 °F 65.3 °F 29.86 in Calm     54 % 0.00 in
09:40 84.1 °F 65.7 °F 29.86 in NW 2.0 mph 2.0 mph 54 % 0.00 in
09:45 84.2 °F 65.2 °F 29.86 in Calm     53 % 0.00 in
09:50 84.4 °F 65.4 °F 29.86 in NW 1.2 mph 1.2 mph 53 % 0.00 in
09:55 84.3 °F 65.3 °F 29.86 in SSW 1.2 mph   53 % 0.00 in
10:00 83.6 °F 64.7 °F 29.86 in NW 1.2 mph 1.2 mph 53 % 0.00 in
10:05 82.9 °F 65.6 °F 29.86 in Calm     56 % 0.00 in
10:10 82.5 °F 65.2 °F 29.86 in NNW 1.2 mph   56 % 0.00 in
10:15 82.6 °F 65.3 °F 29.86 in Calm     56 % 0.00 in
10:20 82.8 °F 65.0 °F 29.86 in NW 1.2 mph 1.2 mph 55 % 0.00 in
10:25 82.9 °F 64.5 °F 29.86 in WNW 1.0 mph 1.0 mph 54 % 0.00 in
10:30 83.4 °F 66.1 °F 29.86 in SSE 1.2 mph   56 % 0.00 in
10:35 84.0 °F 66.6 °F 29.86 in NNW 1.2 mph 1.2 mph 56 % 0.00 in
10:40 84.8 °F 66.3 °F 29.85 in Calm     54 % 0.00 in
10:45 85.3 °F 66.2 °F 29.85 in Calm     53 % 0.00 in
10:50 85.7 °F 66.0 °F 29.85 in WNW 1.2 mph 1.2 mph 52 % 0.00 in
10:55 85.4 °F 64.6 °F 29.85 in NE 1.2 mph 1.2 mph 50 % 0.00 in
11:00 85.6 °F 63.7 °F 29.85 in SSE 1.2 mph 1.2 mph 48 % 0.00 in
11:05 86.1 °F 63.5 °F 29.85 in Calm     47 % 0.00 in
11:10 85.9 °F 64.5 °F 29.84 in South 1.2 mph   49 % 0.00 in
11:15 85.7 °F 64.3 °F 29.84 in NW 1.2 mph 1.2 mph 49 % 0.00 in
11:20 85.9 °F 65.1 °F 29.84 in West 1.2 mph   50 % 0.00 in
11:25 87.0 °F 66.1 °F 29.85 in SSE 1.2 mph   50 % 0.00 in
11:30 87.3 °F 64.6 °F 29.84 in Calm     47 % 0.00 in
11:35 87.7 °F 64.4 °F 29.84 in Calm     46 % 0.00 in
11:40 87.8 °F 64.4 °F 29.84 in NW 1.2 mph 1.2 mph 46 % 0.00 in
11:45 87.7 °F 63.7 °F 29.84 in NW 1.2 mph 1.2 mph 45 % 0.00 in
11:50 87.7 °F 63.7 °F 29.83 in North 1.2 mph   45 % 0.00 in
11:55 88.4 °F 63.7 °F 29.83 in North 1.2 mph 1.2 mph 44 % 0.00 in
12:01 88.4 °F 62.4 °F 29.84 in SE 2.3 mph 2.3 mph 42 % 0.00 in
12:06 88.7 °F 62.7 °F 29.84 in WNW 1.2 mph 1.2 mph 42 % 0.00 in
12:11 89.2 °F 64.4 °F 29.84 in SSW 1.2 mph 1.2 mph 44 % 0.00 in
12:16 89.9 °F 64.4 °F 29.83 in SE 1.0 mph   43 % 0.00 in
12:21 90.2 °F 63.3 °F 29.84 in SSE 2.3 mph 2.3 mph 41 % 0.00 in
12:26 90.0 °F 62.4 °F 29.83 in NNW 2.3 mph 2.3 mph 40 % 0.00 in
12:31 89.8 °F 65.0 °F 29.83 in Calm     44 % 0.00 in
12:36 89.3 °F 63.2 °F 29.83 in WNW 1.2 mph 1.2 mph 42 % 0.00 in
12:41 89.1 °F 63.7 °F 29.82 in WSW 1.2 mph 1.2 mph 43 % 0.00 in
12:46 89.0 °F 63.6 °F 29.82 in Calm     43 % 0.00 in
12:51 88.8 °F 64.7 °F 29.83 in Calm     45 % 0.00 in
12:56 89.5 °F 62.7 °F 29.83 in Calm     41 % 0.00 in
13:01 90.2 °F 62.6 °F 29.83 in NW 1.2 mph 1.2 mph 40 % 0.00 in
13:06 90.2 °F 62.6 °F 29.82 in ESE 2.3 mph 2.3 mph 40 % 0.00 in
13:11 90.3 °F 62.7 °F 29.81 in West 2.3 mph 2.3 mph 40 % 0.00 in
13:16 90.8 °F 63.9 °F 29.81 in NW 1.2 mph 1.2 mph 41 % 0.00 in
13:21 91.0 °F 64.0 °F 29.81 in ESE 1.2 mph   41 % 0.00 in
13:26 91.3 °F 65.0 °F 29.81 in WNW 1.2 mph 1.2 mph 42 % 0.00 in
13:31 91.0 °F 64.0 °F 29.80 in NW 1.2 mph 1.2 mph 41 % 0.00 in
13:36 90.8 °F 63.1 °F 29.81 in NNW 2.3 mph 2.3 mph 40 % 0.00 in
13:41 91.0 °F 62.6 °F 29.81 in NW 1.2 mph 1.2 mph 39 % 0.00 in
13:46 91.5 °F 62.3 °F 29.80 in WNW 2.3 mph 2.3 mph 38 % 0.00 in
13:51 91.3 °F 62.1 °F 29.80 in NW 2.3 mph 2.3 mph 38 % 0.00 in
13:56 91.6 °F 62.4 °F 29.80 in West 3.5 mph 3.5 mph 38 % 0.00 in
14:01 92.2 °F 62.9 °F 29.80 in NW 3.0 mph 3.0 mph 38 % 0.00 in
14:06 92.3 °F 63.8 °F 29.80 in WSW 1.2 mph 1.2 mph 39 % 0.00 in
14:11 93.3 °F 65.4 °F 29.80 in NW 1.2 mph 1.2 mph 40 % 0.00 in
14:16 93.4 °F 63.2 °F 29.79 in NE 3.5 mph 3.5 mph 37 % 0.00 in
14:22 93.3 °F 63.1 °F 29.79 in NW 3.5 mph 3.5 mph 37 % 0.00 in
14:27 93.4 °F 63.2 °F 29.79 in NW 2.3 mph 2.3 mph 37 % 0.00 in
14:32 93.9 °F 65.2 °F 29.79 in NW 3.5 mph 3.5 mph 39 % 0.00 in
14:37 94.1 °F 64.6 °F 29.78 in NW 1.2 mph 1.2 mph 38 % 0.00 in
14:42 94.5 °F 65.0 °F 29.78 in NW 1.2 mph 1.2 mph 38 % 0.00 in
14:47 94.6 °F 64.3 °F 29.78 in NW 2.3 mph 2.3 mph 37 % 0.00 in
14:52 94.4 °F 64.1 °F 29.77 in WNW 2.3 mph 2.3 mph 37 % 0.00 in
14:57 94.4 °F 63.3 °F 29.77 in NW 2.3 mph 2.3 mph 36 % 0.00 in
15:02 94.4 °F 65.6 °F 29.77 in NE 1.2 mph 1.2 mph 39 % 0.00 in
15:07 94.9 °F 63.8 °F 29.77 in WNW 2.0 mph 2.0 mph 36 % 0.00 in
15:12 95.5 °F 63.5 °F 29.77 in WNW 1.2 mph 1.2 mph 35 % 0.00 in
15:17 95.9 °F 64.7 °F 29.77 in WNW 3.5 mph 3.5 mph 36 % 0.00 in
15:22 96.1 °F 64.8 °F 29.77 in SE 2.3 mph 2.3 mph 36 % 0.00 in
15:27 96.1 °F 64.8 °F 29.76 in NNW 2.3 mph 2.3 mph 36 % 0.00 in
15:32 96.1 °F 64.0 °F 29.76 in NNW 2.3 mph 2.3 mph 35 % 0.00 in
15:37 96.8 °F 63.8 °F 29.76 in NW 3.5 mph 3.5 mph 34 % 0.00 in
15:42 96.8 °F 63.0 °F 29.76 in NW 3.0 mph 3.0 mph 33 % 0.00 in
15:47 96.8 °F 63.0 °F 29.76 in NNW 2.3 mph 2.3 mph 33 % 0.00 in
15:52 96.9 °F 61.3 °F 29.76 in West 1.2 mph 1.2 mph 31 % 0.00 in
15:57 97.3 °F 62.5 °F 29.75 in North 2.3 mph 2.3 mph 32 % 0.00 in
16:02 97.5 °F 61.8 °F 29.76 in NW 3.5 mph 3.5 mph 31 % 0.00 in
16:07 97.3 °F 61.6 °F 29.76 in NNW 1.2 mph 1.2 mph 31 % 0.00 in
16:12 97.2 °F 62.4 °F 29.76 in West 2.3 mph 2.3 mph 32 % 0.00 in
16:17 97.0 °F 64.0 °F 29.76 in SW 2.3 mph 2.3 mph 34 % 0.00 in
16:22 96.6 °F 65.3 °F 29.76 in North 2.3 mph 2.3 mph 36 % 0.00 in
16:27 95.9 °F 65.4 °F 29.75 in WSW 2.0 mph 2.0 mph 37 % 0.00 in
16:32 95.6 °F 65.9 °F 29.75 in East 2.0 mph 2.0 mph 38 % 0.00 in
16:37 95.0 °F 65.4 °F 29.75 in NNW 2.3 mph 2.3 mph 38 % 0.00 in
16:42 94.8 °F 65.2 °F 29.75 in NNW 1.2 mph 1.2 mph 38 % 0.00 in
16:47 95.1 °F 64.7 °F 29.75 in NW 1.2 mph   37 % 0.00 in
16:52 95.3 °F 63.3 °F 29.75 in WNW 2.0 mph 2.0 mph 35 % 0.00 in
16:57 95.2 °F 65.6 °F 29.75 in SSE 1.2 mph 1.2 mph 38 % 0.00 in
17:03 95.1 °F 66.2 °F 29.75 in Calm     39 % 0.00 in
17:08 94.6 °F 65.8 °F 29.75 in Calm     39 % 0.00 in
17:13 94.0 °F 67.4 °F 29.75 in Calm     42 % 0.00 in
17:18 93.6 °F 67.1 °F 29.75 in Calm     42 % 0.00 in
17:23 92.9 °F 67.1 °F 29.75 in Calm     43 % 0.00 in
17:28 92.3 °F 67.2 °F 29.76 in Calm     44 % 0.00 in
17:33 91.7 °F 66.7 °F 29.76 in SSE 1.2 mph 1.2 mph 44 % 0.00 in
17:38 90.9 °F 66.6 °F 29.76 in Calm     45 % 0.00 in
17:43 90.4 °F 66.2 °F 29.76 in Calm     45 % 0.00 in
17:48 90.0 °F 66.4 °F 29.76 in Calm     46 % 0.00 in
17:53 89.7 °F 65.5 °F 29.76 in Calm     45 % 0.00 in
17:58 89.6 °F 65.4 °F 29.76 in Calm     45 % 0.00 in
18:03 89.5 °F 66.0 °F 29.76 in Calm     46 % 0.00 in
18:08 89.4 °F 65.9 °F 29.76 in Calm     46 % 0.00 in
18:13 89.2 °F 67.5 °F 29.76 in Calm     49 % 0.00 in
18:18 88.8 °F 67.2 °F 29.76 in Calm     49 % 0.00 in
18:23 88.3 °F 66.7 °F 29.76 in Calm     49 % 0.00 in
18:28 87.9 °F 66.9 °F 29.76 in Calm     50 % 0.00 in
18:33 87.5 °F 67.1 °F 29.77 in Calm     51 % 0.00 in
18:38 87.1 °F 67.9 °F 29.77 in Calm     53 % 0.00 in
18:43 86.8 °F 67.1 °F 29.78 in Calm     52 % 0.00 in
18:48 86.8 °F 67.6 °F 29.78 in Calm     53 % 0.00 in
18:53 86.7 °F 66.4 °F 29.78 in Calm     51 % 0.00 in
18:59 86.7 °F 67.0 °F 29.78 in Calm     52 % 0.00 in
19:04 86.5 °F 65.1 °F 29.78 in Calm     49 % 0.00 in
19:09 86.9 °F 64.8 °F 29.78 in Calm     48 % 0.00 in
19:14 87.4 °F 64.1 °F 29.78 in WNW 1.2 mph 1.2 mph 46 % 0.00 in
19:19 88.0 °F 64.6 °F 29.78 in ENE 2.0 mph 2.0 mph 46 % 0.00 in
19:24 88.4 °F 63.7 °F 29.77 in West 1.2 mph 1.2 mph 44 % 0.00 in
19:29 88.5 °F 63.8 °F 29.77 in Calm     44 % 0.00 in
19:34 88.5 °F 63.8 °F 29.77 in West 2.3 mph 2.3 mph 44 % 0.00 in
19:39 88.7 °F 63.3 °F 29.77 in WNW 2.3 mph 2.3 mph 43 % 0.00 in
19:43 88.8 °F 64.1 °F 29.77 in WNW 1.2 mph 1.2 mph 44 % 0.00 in
19:47 88.7 °F 64.6 °F 29.77 in North 2.3 mph 2.3 mph 45 % 0.00 in
19:52 88.3 °F 66.1 °F 29.77 in NW 5.8 mph 5.8 mph 48 % 0.00 in
19:57 87.1 °F 68.4 °F 29.77 in NW 3.5 mph 3.5 mph 54 % 0.00 in
19:59 86.7 °F 68.6 °F 29.77 in North 3.5 mph 3.5 mph 55 % 0.00 in
20:04 86.3 °F 67.7 °F 29.77 in WNW 3.5 mph 3.5 mph 54 % 0.00 in
20:09 86.1 °F 68.0 °F 29.77 in NW 3.5 mph 3.5 mph 55 % 0.00 in
20:14 85.7 °F 68.2 °F 29.77 in NW 3.5 mph 3.5 mph 56 % 0.00 in
20:19 85.2 °F 67.7 °F 29.77 in NW 3.5 mph 3.5 mph 56 % 0.00 in
20:21 84.9 °F 68.0 °F 29.78 in NW 3.5 mph 3.5 mph 57 % 0.00 in
20:26 84.3 °F 67.9 °F 29.78 in WNW 2.3 mph 2.3 mph 58 % 0.00 in
20:31 83.6 °F 66.2 °F 29.78 in North 3.5 mph 3.5 mph 56 % 0.00 in
20:36 83.4 °F 65.0 °F 29.78 in North 3.5 mph 3.5 mph 54 % 0.00 in
20:41 83.5 °F 65.1 °F 29.78 in NW 5.8 mph 5.8 mph 54 % 0.00 in
20:46 83.3 °F 64.9 °F 29.78 in NW 5.8 mph 5.8 mph 54 % 0.00 in
20:51 83.2 °F 65.4 °F 29.78 in WNW 1.2 mph 1.2 mph 55 % 0.00 in
20:56 83.0 °F 65.2 °F 29.78 in NW 2.3 mph 2.3 mph 55 % 0.00 in
21:01 82.7 °F 65.4 °F 29.78 in NW 3.0 mph 3.0 mph 56 % 0.00 in
21:06 82.5 °F 65.2 °F 29.78 in NNE 3.5 mph 3.5 mph 56 % 0.00 in
21:11 82.4 °F 65.1 °F 29.78 in WNW 3.5 mph 3.5 mph 56 % 0.00 in
21:16 82.3 °F 65.0 °F 29.78 in NW 3.5 mph 3.5 mph 56 % 0.00 in
21:21 82.1 °F 64.3 °F 29.78 in NW 4.0 mph 4.0 mph 55 % 0.00 in
21:26 81.9 °F 64.1 °F 29.78 in NW 3.5 mph 3.5 mph 55 % 0.00 in
21:31 81.7 °F 64.5 °F 29.78 in NW 2.3 mph 2.3 mph 56 % 0.00 in
21:36 81.5 °F 64.3 °F 29.78 in NW 2.3 mph 2.3 mph 56 % 0.00 in
21:41 80.8 °F 64.6 °F 29.78 in WNW 2.3 mph 2.3 mph 58 % 0.00 in
21:47 80.3 °F 64.7 °F 29.79 in NW 2.3 mph 2.3 mph 59 % 0.00 in
21:52 79.9 °F 64.8 °F 29.79 in NW 1.2 mph 1.2 mph 60 % 0.00 in
22:02 79.3 °F 65.1 °F 29.79 in NW 1.2 mph 1.2 mph 62 % 0.00 in
22:07 79.1 °F 65.4 °F 29.80 in WNW 1.2 mph 1.2 mph 63 % 0.00 in
22:12 78.7 °F 65.5 °F 29.80 in Calm     64 % 0.00 in
22:17 78.3 °F 65.6 °F 29.80 in WNW 1.2 mph   65 % 0.00 in
22:22 78.1 °F 65.8 °F 29.80 in Calm     66 % 0.00 in
22:27 78.0 °F 65.7 °F 29.80 in Calm     66 % 0.00 in
22:32 77.8 °F 66.0 °F 29.80 in Calm     67 % 0.00 in
22:37 77.8 °F 66.0 °F 29.80 in Calm     67 % 0.00 in
22:42 77.8 °F 66.0 °F 29.80 in Calm     67 % 0.00 in
22:47 77.7 °F 65.9 °F 29.80 in Calm     67 % 0.00 in
22:52 77.7 °F 65.9 °F 29.80 in Calm     67 % 0.00 in
22:57 77.6 °F 67.0 °F 29.80 in Calm     70 % 0.00 in
23:02 77.2 °F 66.7 °F 29.80 in Calm     70 % 0.00 in
23:07 76.8 °F 66.3 °F 29.81 in Calm     70 % 0.00 in
23:12 76.6 °F 66.5 °F 29.80 in Calm     71 % 0.00 in
23:17 76.3 °F 66.6 °F 29.81 in Calm     72 % 0.00 in
23:22 75.9 °F 66.6 °F 29.81 in Calm     73 % 0.00 in
23:27 75.4 °F 66.5 °F 29.80 in Calm     74 % 0.00 in
23:32 75.0 °F 66.1 °F 29.80 in Calm     74 % 0.00 in
23:37 74.7 °F 66.2 °F 29.80 in Calm     75 % 0.00 in
23:42 74.3 °F 66.2 °F 29.80 in Calm     76 % 0.00 in
23:47 74.1 °F 66.0 °F 29.80 in Calm     76 % 0.00 in
23:52 73.9 °F 66.2 °F 29.80 in Calm     77 % 0.00 in
23:57 73.8 °F 66.1 °F 29.80 in Calm     77 % 0.00 in
Park Place, Exeter, Tulare County, California, USA
Compliments of Weather Underground - 2.75 mb